createdAt,value
2022-10-15T00:01:13.104Z,68.75
2022-10-15T00:03:42.040Z,68.75
2022-10-15T00:06:16.272Z,68.99
2022-10-15T00:08:44.022Z,69.67
2022-10-15T00:11:17.750Z,69.27
2022-10-15T00:13:44.694Z,69.35
2022-10-15T00:16:14.664Z,68.77
2022-10-15T00:18:42.432Z,68.96
2022-10-15T00:21:11.426Z,69.69
2022-10-15T00:23:38.820Z,69.52
2022-10-15T00:26:12.668Z,69.29
2022-10-15T00:28:41.294Z,69.85
2022-10-15T00:31:14.076Z,70.46
2022-10-15T00:33:41.769Z,71.07
2022-10-15T00:36:12.830Z,70.80
2022-10-15T00:38:40.140Z,71.41
2022-10-15T00:41:10.738Z,71.27
2022-10-15T00:43:45.203Z,70.82
2022-10-15T00:46:21.303Z,71.25
2022-10-15T00:48:51.615Z,71.74
2022-10-15T00:51:19.852Z,72.05
2022-10-15T00:53:48.652Z,71.55
2022-10-15T00:56:22.275Z,71.86
2022-10-15T00:58:52.056Z,71.49
2022-10-15T01:01:19.057Z,71.32
2022-10-15T01:03:46.232Z,71.07
2022-10-15T01:06:13.170Z,71.97
2022-10-15T01:08:42.644Z,72.14
2022-10-15T01:11:16.694Z,71.75
2022-10-15T01:13:49.660Z,72.20
2022-10-15T01:16:28.531Z,71.76
2022-10-15T01:19:06.356Z,71.35
2022-10-15T01:21:55.107Z,72.84
2022-10-15T01:24:48.034Z,71.65
2022-10-15T01:27:23.802Z,71.40
2022-10-15T01:30:22.453Z,71.71
2022-10-15T01:33:06.572Z,71.44
2022-10-15T01:35:42.561Z,71.45
2022-10-15T01:38:35.991Z,71.15
2022-10-15T01:41:12.439Z,71.81
2022-10-15T01:43:52.236Z,72.72
2022-10-15T01:46:37.032Z,73.42
2022-10-15T01:49:07.637Z,73.10
2022-10-15T01:51:38.891Z,73.55
2022-10-15T01:54:10.273Z,74.02
2022-10-15T01:56:38.877Z,75.32
2022-10-15T01:59:08.182Z,75.12
2022-10-15T02:01:36.600Z,74.93
2022-10-15T02:04:22.173Z,75.77
2022-10-15T02:07:09.161Z,75.36
2022-10-15T02:09:54.955Z,75.93
2022-10-15T02:12:42.437Z,76.79
2022-10-15T02:15:18.235Z,76.25
2022-10-15T02:17:47.985Z,75.89
2022-10-15T02:20:23.103Z,76.75
2022-10-15T02:23:13.511Z,76.68
2022-10-15T02:25:42.024Z,76.31
2022-10-15T02:28:12.216Z,76.49
2022-10-15T02:30:42.926Z,76.27
2022-10-15T02:33:13.045Z,76.68
2022-10-15T02:35:43.456Z,76.76
2022-10-15T02:40:47.678Z,77.45
2022-10-15T02:43:20.020Z,76.83
2022-10-15T02:45:47.594Z,77.21
2022-10-15T02:48:16.163Z,77.11
2022-10-15T02:50:43.314Z,77.48
2022-10-15T02:53:13.443Z,76.40
2022-10-15T02:55:42.631Z,76.65
2022-10-15T02:58:09.648Z,75.96
2022-10-15T03:00:36.641Z,75.65
2022-10-15T03:03:03.675Z,76.15
2022-10-15T03:05:30.879Z,76.67
2022-10-15T03:08:00.042Z,76.20
2022-10-15T03:10:27.698Z,76.85
2022-10-15T03:12:54.910Z,76.40
2022-10-15T03:15:22.281Z,76.26
2022-10-15T03:17:49.197Z,77.16
2022-10-15T03:20:17.770Z,75.11
2022-10-15T03:22:44.752Z,75.46
2022-10-15T03:25:11.734Z,74.94
2022-10-15T03:27:38.628Z,74.26
2022-10-15T03:30:16.061Z,74.17
2022-10-15T03:32:45.234Z,74.16
2022-10-15T03:35:12.119Z,74.85
2022-10-15T03:37:39.019Z,74.90
2022-10-15T03:40:13.432Z,75.01
2022-10-15T03:42:42.656Z,75.10
2022-10-15T03:45:11.537Z,75.42
2022-10-15T03:47:43.505Z,76.53
2022-10-15T03:50:10.670Z,76.99
2022-10-15T03:52:38.179Z,76.33
2022-10-15T03:55:06.088Z,78.09
2022-10-15T03:57:33.979Z,79.33
2022-10-15T04:00:07.097Z,78.49
2022-10-15T04:02:39.364Z,80.33
2022-10-15T04:05:18.167Z,82.37
2022-10-15T04:07:51.421Z,84.49
2022-10-15T04:10:21.099Z,86.46
2022-10-15T04:12:48.206Z,87.35
2022-10-15T04:15:16.971Z,88.94
2022-10-15T04:17:55.949Z,89.97
2022-10-15T04:20:25.390Z,90.31
2022-10-15T04:22:52.393Z,90.86
2022-10-15T04:25:19.328Z,90.03
2022-10-15T04:27:46.547Z,89.88
2022-10-15T04:30:17.340Z,89.61
2022-10-15T04:32:54.785Z,87.98
2022-10-15T04:35:22.313Z,88.07
2022-10-15T04:37:59.832Z,88.24
2022-10-15T04:40:30.034Z,86.16
2022-10-15T04:42:57.468Z,86.82
2022-10-15T04:47:57.131Z,85.61
2022-10-15T04:50:25.203Z,84.76
2022-10-15T04:53:10.438Z,84.93
2022-10-15T04:55:39.563Z,84.41
2022-10-15T04:58:06.451Z,81.99
2022-10-15T05:00:33.501Z,79.30
2022-10-15T05:03:18.831Z,77.91
2022-10-15T05:05:51.465Z,76.73
2022-10-15T05:08:18.506Z,75.24
2022-10-15T05:11:20.610Z,74.20
2022-10-15T05:13:48.818Z,74.10
2022-10-15T05:16:21.024Z,71.89
2022-10-15T05:18:51.690Z,73.35
2022-10-15T05:21:19.726Z,71.65
2022-10-15T05:23:50.979Z,71.76
2022-10-15T05:26:30.204Z,70.41
2022-10-15T05:28:58.898Z,71.57
2022-10-15T05:31:31.359Z,70.05
2022-10-15T05:34:13.754Z,70.82
2022-10-15T05:36:46.550Z,69.87
2022-10-15T05:39:15.586Z,70.47
2022-10-15T05:41:44.673Z,71.86
2022-10-15T05:44:11.648Z,69.25
2022-10-15T05:46:38.964Z,69.23
2022-10-15T05:49:06.103Z,70.49
2022-10-15T05:51:44.955Z,68.73
2022-10-15T05:54:19.048Z,67.89
2022-10-15T05:56:46.349Z,67.51
2022-10-15T05:59:13.294Z,66.72
2022-10-15T06:01:40.259Z,68.46
2022-10-15T06:04:07.215Z,67.36
2022-10-15T06:06:35.077Z,67.11
2022-10-15T06:09:02.115Z,66.83
2022-10-15T06:11:29.018Z,65.65
2022-10-15T06:13:56.125Z,66.48
2022-10-15T06:16:23.972Z,67.14
2022-10-15T06:18:54.866Z,67.63
2022-10-15T06:21:21.928Z,67.42
2022-10-15T06:23:49.983Z,66.22
2022-10-15T06:26:16.916Z,65.88
2022-10-15T06:28:48.148Z,67.04
2022-10-15T06:31:15.297Z,66.20
2022-10-15T06:33:42.166Z,66.09
2022-10-15T06:36:11.412Z,65.68
2022-10-15T06:38:39.570Z,65.75
2022-10-15T06:41:07.844Z,64.22
2022-10-15T06:43:35.915Z,63.96
2022-10-15T06:46:04.882Z,63.67
2022-10-15T06:48:32.893Z,64.89
2022-10-15T06:51:01.616Z,64.23
2022-10-15T06:53:29.413Z,64.34
2022-10-15T06:56:01.347Z,63.08
2022-10-15T06:58:30.632Z,61.20
2022-10-15T07:01:05.722Z,60.13
2022-10-15T07:03:32.599Z,59.64
2022-10-15T07:06:06.736Z,61.56
2022-10-15T07:08:34.334Z,61.43
2022-10-15T07:11:03.115Z,60.46
2022-10-15T07:13:32.015Z,59.77
2022-10-15T07:16:12.418Z,59.16
2022-10-15T07:18:40.269Z,57.86
2022-10-15T07:23:41.409Z,57.51
2022-10-15T07:26:08.273Z,58.02
2022-10-15T07:28:35.193Z,57.49
2022-10-15T07:31:04.245Z,56.26
2022-10-15T07:33:31.686Z,54.92
2022-10-15T07:36:09.105Z,54.32
2022-10-15T07:38:36.398Z,53.09
2022-10-15T07:41:04.970Z,52.45
2022-10-15T07:43:37.962Z,52.97
2022-10-15T07:46:05.167Z,51.02
2022-10-15T07:48:32.588Z,51.76
2022-10-15T07:51:02.584Z,50.01
2022-10-15T07:53:30.408Z,52.08
2022-10-15T07:56:06.371Z,52.81
2022-10-15T07:58:34.791Z,51.17
2022-10-15T08:01:03.048Z,49.85
2022-10-15T08:03:30.952Z,47.03
2022-10-15T08:06:00.728Z,47.24
2022-10-15T08:08:28.764Z,45.99
2022-10-15T08:10:55.786Z,47.71
2022-10-15T08:13:23.147Z,47.92
2022-10-15T08:15:51.523Z,45.61
2022-10-15T08:18:19.975Z,44.46
2022-10-15T08:20:46.896Z,44.30
2022-10-15T08:23:16.650Z,43.80
2022-10-15T08:25:43.759Z,42.97
2022-10-15T08:28:12.846Z,44.62
2022-10-15T08:30:39.799Z,45.44
2022-10-15T08:33:12.796Z,43.94
2022-10-15T08:35:43.833Z,44.36
2022-10-15T08:38:14.849Z,42.79
2022-10-15T08:40:55.635Z,41.60
2022-10-15T08:43:26.634Z,40.42
2022-10-15T08:45:59.650Z,39.52
2022-10-15T08:48:35.816Z,37.16
2022-10-15T08:51:17.297Z,36.37
2022-10-15T08:53:50.942Z,34.33
2022-10-15T08:56:24.282Z,33.93
2022-10-15T08:59:23.033Z,34.29
2022-10-15T09:01:55.756Z,32.04
2022-10-15T09:04:42.483Z,30.43
2022-10-15T09:07:19.478Z,34.02
2022-10-15T09:09:54.187Z,34.91
2022-10-15T09:12:39.598Z,34.83
2022-10-15T09:15:13.024Z,34.29
2022-10-15T09:17:41.677Z,35.57
2022-10-15T09:20:18.119Z,37.83
2022-10-15T09:22:51.881Z,37.39
2022-10-15T09:25:26.459Z,36.79
2022-10-15T09:28:02.642Z,38.14
2022-10-15T09:30:38.481Z,37.86
2022-10-15T09:33:31.541Z,41.14
2022-10-15T09:36:35.198Z,44.90
2022-10-15T09:39:06.117Z,46.40
2022-10-15T09:41:49.482Z,47.08
2022-10-15T09:44:21.064Z,44.96
2022-10-15T09:46:51.229Z,45.66
2022-10-15T09:49:29.360Z,45.93
2022-10-15T09:51:59.515Z,45.70
2022-10-15T09:54:38.455Z,45.99
2022-10-15T09:57:09.657Z,47.93
2022-10-15T09:59:36.562Z,49.14
2022-10-15T10:02:17.980Z,50.35
2022-10-15T10:04:44.953Z,50.90
2022-10-15T10:07:29.104Z,50.66
2022-10-15T10:10:00.130Z,48.27
2022-10-15T10:12:31.187Z,47.48
2022-10-15T10:15:05.896Z,47.49
2022-10-15T10:17:33.006Z,46.15
2022-10-15T10:20:21.434Z,46.67
2022-10-15T10:23:02.120Z,49.27
2022-10-15T10:25:45.100Z,49.76
2022-10-15T10:28:11.922Z,50.96
2022-10-15T10:31:03.375Z,50.57
2022-10-15T10:33:42.188Z,50.87
2022-10-15T10:36:39.484Z,50.34
2022-10-15T10:39:14.869Z,52.46
2022-10-15T10:41:57.420Z,53.38
2022-10-15T10:44:34.675Z,52.72
2022-10-15T10:47:20.076Z,52.24
2022-10-15T10:49:53.529Z,53.77
2022-10-15T10:52:32.758Z,53.36
2022-10-15T10:55:19.778Z,51.56
2022-10-15T10:58:02.197Z,50.69
2022-10-15T11:00:44.204Z,50.10
2022-10-15T11:03:38.850Z,48.60
2022-10-15T11:06:20.650Z,48.93
2022-10-15T11:08:57.705Z,48.98
2022-10-15T11:11:32.166Z,48.07
2022-10-15T11:14:21.777Z,48.97
2022-10-15T11:17:11.559Z,49.50
2022-10-15T11:20:12.122Z,50.06
2022-10-15T11:22:43.646Z,52.21
2022-10-15T11:25:23.882Z,51.33
2022-10-15T11:28:05.286Z,49.86
2022-10-15T11:31:03.581Z,49.45
2022-10-15T11:33:45.957Z,49.46
2022-10-15T11:36:24.016Z,49.29
2022-10-15T11:39:11.973Z,48.23
2022-10-15T11:41:38.811Z,48.98
2022-10-15T11:44:26.992Z,49.98
2022-10-15T11:47:15.442Z,47.96
2022-10-15T11:50:10.426Z,47.73
2022-10-15T11:52:56.654Z,46.50
2022-10-15T11:55:34.323Z,48.66
2022-10-15T11:58:11.927Z,47.90
2022-10-15T12:00:49.272Z,45.38
2022-10-15T12:03:24.162Z,44.01
2022-10-15T12:06:16.432Z,44.90
2022-10-15T12:08:44.421Z,45.57
2022-10-15T12:11:23.637Z,46.07
2022-10-15T12:14:18.342Z,43.05
2022-10-15T12:17:04.675Z,41.53
2022-10-15T12:19:45.922Z,42.43
2022-10-15T12:22:12.870Z,42.76
2022-10-15T12:24:47.657Z,42.50
2022-10-15T12:27:21.080Z,42.29
2022-10-15T12:29:51.022Z,42.37
2022-10-15T12:32:30.942Z,42.54
2022-10-15T12:35:04.191Z,44.40
2022-10-15T12:37:36.057Z,46.74
2022-10-15T12:40:07.270Z,45.87
2022-10-15T12:42:39.617Z,46.02
2022-10-15T12:45:19.190Z,47.38
2022-10-15T12:48:13.480Z,46.33
2022-10-15T12:50:42.858Z,45.25
2022-10-15T12:56:18.286Z,45.94
2022-10-15T12:58:53.172Z,46.65
2022-10-15T13:01:22.964Z,46.11
2022-10-15T13:03:50.447Z,47.14
2022-10-15T13:06:23.236Z,48.01
2022-10-15T13:08:50.134Z,47.23
2022-10-15T13:11:22.672Z,46.83
2022-10-15T13:13:52.859Z,47.41
2022-10-15T13:16:22.622Z,48.59
2022-10-15T13:18:55.594Z,50.95
2022-10-15T13:21:23.619Z,51.53
2022-10-15T13:23:52.322Z,51.63
2022-10-15T13:26:27.159Z,51.31
2022-10-15T13:28:58.054Z,52.88
2022-10-15T13:31:31.574Z,54.26
2022-10-15T13:34:02.909Z,54.19
2022-10-15T13:36:33.722Z,53.86
2022-10-15T13:39:06.629Z,52.08
2022-10-15T13:41:37.014Z,52.64
2022-10-15T13:44:04.669Z,53.00
2022-10-15T13:46:36.366Z,52.91
2022-10-15T13:49:11.195Z,52.92
2022-10-15T13:51:41.159Z,53.46
2022-10-15T13:54:16.878Z,53.86
2022-10-15T13:56:50.622Z,53.75
2022-10-15T13:59:19.488Z,52.57
2022-10-15T14:01:54.158Z,53.20
2022-10-15T14:04:24.306Z,53.22
2022-10-15T14:07:02.723Z,53.28
2022-10-15T14:09:32.103Z,55.57
2022-10-15T14:12:03.241Z,55.36
2022-10-15T14:14:41.622Z,54.40
2022-10-15T14:17:17.091Z,55.92
2022-10-15T14:20:02.155Z,54.62
2022-10-15T14:22:37.529Z,54.65
2022-10-15T14:25:10.519Z,54.08
2022-10-15T14:27:37.778Z,53.50
2022-10-15T14:30:15.532Z,53.28
2022-10-15T14:32:46.816Z,54.68
2022-10-15T14:35:32.479Z,53.80
2022-10-15T14:38:19.598Z,52.96
2022-10-15T14:41:07.798Z,53.12
2022-10-15T14:43:37.137Z,52.44
2022-10-15T14:46:07.808Z,50.82
2022-10-15T14:48:37.934Z,49.99
2022-10-15T14:51:09.046Z,51.11
2022-10-15T14:53:39.760Z,49.89
2022-10-15T14:56:23.156Z,49.12
2022-10-15T14:58:57.100Z,48.11
2022-10-15T15:01:25.159Z,50.05
2022-10-15T15:03:54.522Z,50.97
2022-10-15T15:06:21.642Z,49.89
2022-10-15T15:08:48.786Z,50.32
2022-10-15T15:11:20.633Z,50.51
2022-10-15T15:13:49.857Z,49.38
2022-10-15T15:16:18.226Z,48.74
2022-10-15T15:18:46.659Z,50.08
2022-10-15T15:21:17.938Z,49.82
2022-10-15T15:23:48.856Z,48.99
2022-10-15T15:26:15.924Z,49.18
2022-10-15T15:28:42.936Z,50.30
2022-10-15T15:31:16.764Z,49.22
2022-10-15T15:33:43.897Z,50.49
2022-10-15T15:36:20.573Z,50.30
2022-10-15T15:38:50.402Z,50.80
2022-10-15T15:41:20.192Z,50.51
2022-10-15T15:43:47.821Z,50.15
2022-10-15T15:46:15.157Z,49.95
2022-10-15T15:48:42.170Z,50.04
2022-10-15T15:51:12.268Z,49.88
2022-10-15T15:53:39.299Z,50.23
2022-10-15T15:56:06.477Z,49.70
2022-10-15T15:58:33.470Z,49.56
2022-10-15T16:01:00.410Z,49.69
2022-10-15T16:03:27.261Z,49.38
2022-10-15T16:05:54.288Z,49.67
2022-10-15T16:08:21.261Z,50.10
2022-10-15T16:10:48.288Z,50.05
2022-10-15T16:13:15.538Z,49.77
2022-10-15T16:15:42.506Z,50.11
2022-10-15T16:18:09.527Z,50.73
2022-10-15T16:20:39.623Z,50.51
2022-10-15T16:23:06.538Z,51.10
2022-10-15T16:25:33.453Z,51.07
2022-10-15T16:28:02.018Z,51.23
2022-10-15T16:30:29.343Z,51.25
2022-10-15T16:32:56.425Z,50.91
2022-10-15T16:35:23.473Z,50.41
2022-10-15T16:37:53.973Z,51.03
2022-10-15T16:40:20.955Z,51.06
2022-10-15T16:42:48.123Z,51.42
2022-10-15T16:45:15.286Z,51.66
2022-10-15T16:47:42.219Z,52.22
2022-10-15T16:50:09.475Z,51.84
2022-10-15T16:52:36.404Z,52.40
2022-10-15T16:55:03.932Z,53.47
2022-10-15T16:57:30.865Z,53.83
2022-10-15T16:59:57.872Z,54.14
2022-10-15T17:02:24.904Z,54.60
2022-10-15T17:04:52.094Z,54.30
2022-10-15T17:07:19.198Z,54.79
2022-10-15T17:09:51.165Z,56.34
2022-10-15T17:12:18.276Z,57.47
2022-10-15T17:14:50.971Z,58.20
2022-10-15T17:17:18.300Z,57.84
2022-10-15T17:19:45.191Z,58.75
2022-10-15T17:22:12.239Z,58.35
2022-10-15T17:24:39.208Z,58.72
2022-10-15T17:27:06.110Z,60.17
2022-10-15T17:29:33.859Z,60.17
2022-10-15T17:32:02.732Z,59.62
2022-10-15T17:34:29.718Z,60.51
2022-10-15T17:36:57.041Z,60.15
2022-10-15T17:39:24.201Z,59.75
2022-10-15T17:41:52.071Z,60.07
2022-10-15T17:44:19.475Z,60.81
2022-10-15T17:46:46.484Z,61.16
2022-10-15T17:49:18.372Z,61.29
2022-10-15T17:51:46.371Z,61.76
2022-10-15T17:54:13.397Z,61.91
2022-10-15T17:56:40.773Z,61.69
2022-10-15T17:59:10.542Z,62.58
2022-10-15T18:01:57.180Z,61.84
2022-10-15T18:04:25.059Z,61.71
2022-10-15T18:06:52.343Z,61.77
2022-10-15T18:09:26.670Z,62.23
2022-10-15T18:11:55.902Z,62.79
2022-10-15T18:14:31.254Z,62.10
2022-10-15T18:16:58.415Z,62.58
2022-10-15T18:19:26.777Z,61.97
2022-10-15T18:21:55.564Z,61.51
2022-10-15T18:24:23.669Z,61.19
2022-10-15T18:26:51.472Z,60.68
2022-10-15T18:29:18.736Z,61.41
2022-10-15T18:31:47.114Z,62.32
2022-10-15T18:34:14.146Z,61.10
2022-10-15T18:36:42.541Z,62.83
2022-10-15T18:39:09.949Z,61.34
2022-10-15T18:41:38.553Z,61.43
2022-10-15T18:44:16.053Z,60.98
2022-10-15T18:46:45.134Z,62.55
2022-10-15T18:49:14.361Z,64.32
2022-10-15T18:51:41.972Z,63.63
2022-10-15T18:54:11.097Z,62.81
2022-10-15T18:56:38.460Z,62.57
2022-10-15T18:59:05.601Z,63.17
2022-10-15T19:01:39.158Z,62.52
2022-10-15T19:04:09.490Z,62.83
2022-10-15T19:06:39.132Z,62.84
2022-10-15T19:09:09.136Z,64.31
2022-10-15T19:11:37.005Z,62.84
2022-10-15T19:14:05.250Z,61.66
2022-10-15T19:16:32.621Z,61.29
2022-10-15T19:19:04.762Z,61.79
2022-10-15T19:21:32.464Z,62.26
2022-10-15T19:23:59.754Z,63.02
2022-10-15T19:26:28.481Z,63.48
2022-10-15T19:28:57.219Z,64.03
2022-10-15T19:31:25.820Z,64.04
2022-10-15T19:33:54.548Z,64.43
2022-10-15T19:36:27.249Z,64.50
2022-10-15T19:38:54.371Z,64.06
2022-10-15T19:41:21.880Z,63.82
2022-10-15T19:43:48.858Z,63.98
2022-10-15T19:46:15.842Z,64.38
2022-10-15T19:48:44.717Z,63.85
2022-10-15T19:51:11.926Z,63.90
2022-10-15T19:53:38.923Z,64.56
2022-10-15T19:56:08.626Z,64.14
2022-10-15T19:58:36.043Z,63.96
2022-10-15T20:01:05.676Z,63.95
2022-10-15T20:03:33.058Z,64.45
2022-10-15T20:06:06.251Z,64.29
2022-10-15T20:08:33.392Z,64.31
2022-10-15T20:11:00.314Z,64.50
2022-10-15T20:13:27.314Z,65.21
2022-10-15T20:15:54.637Z,65.76
2022-10-15T20:18:22.233Z,65.72
2022-10-15T20:20:49.770Z,65.57
2022-10-15T20:23:17.851Z,65.16
2022-10-15T20:25:45.498Z,63.70
2022-10-15T20:28:14.331Z,64.02
2022-10-15T20:30:42.333Z,63.84
2022-10-15T20:33:10.395Z,61.74
2022-10-15T20:35:38.684Z,62.47
2022-10-15T20:38:06.451Z,63.21
2022-10-15T20:40:35.181Z,63.24
2022-10-15T20:43:02.140Z,63.18
2022-10-15T20:45:38.715Z,62.17
2022-10-15T20:48:07.190Z,62.99
2022-10-15T20:50:35.854Z,62.85
2022-10-15T20:53:03.480Z,62.40
2022-10-15T20:55:30.508Z,62.62
2022-10-15T20:57:57.573Z,62.54
2022-10-15T21:00:24.460Z,62.42
2022-10-15T21:02:51.326Z,61.68
2022-10-15T21:05:18.234Z,60.98
2022-10-15T21:07:45.133Z,60.04
2022-10-15T21:10:12.054Z,59.36
2022-10-15T21:12:39.367Z,59.96
2022-10-15T21:15:06.866Z,60.43
2022-10-15T21:17:33.755Z,60.75
2022-10-15T21:20:00.689Z,60.04
2022-10-15T21:22:27.551Z,59.84
2022-10-15T21:24:54.437Z,61.59
2022-10-15T21:27:21.749Z,59.89
2022-10-15T21:29:49.606Z,60.83
2022-10-15T21:32:16.675Z,59.62
2022-10-15T21:34:43.755Z,57.88
2022-10-15T21:37:11.376Z,58.43
2022-10-15T21:39:38.246Z,58.06
2022-10-15T21:42:05.102Z,57.71
2022-10-15T21:44:32.055Z,58.36
2022-10-15T21:46:59.064Z,58.21
2022-10-15T21:49:25.924Z,57.96
2022-10-15T21:51:52.882Z,57.31
2022-10-15T21:54:19.759Z,57.38
2022-10-15T21:56:46.712Z,58.08
2022-10-15T21:59:13.775Z,57.88
2022-10-15T22:01:42.008Z,58.91
2022-10-15T22:04:10.918Z,57.51
2022-10-15T22:06:42.316Z,56.76
2022-10-15T22:09:10.493Z,56.96
2022-10-15T22:11:39.942Z,56.43
2022-10-15T22:14:09.826Z,57.58
2022-10-15T22:16:38.434Z,57.57
2022-10-15T22:19:07.848Z,58.12
2022-10-15T22:21:36.590Z,57.65
2022-10-15T22:24:17.107Z,57.65
2022-10-15T22:26:52.459Z,57.92
2022-10-15T22:29:31.696Z,58.76
2022-10-15T22:32:02.388Z,58.65
2022-10-15T22:34:29.473Z,58.87
2022-10-15T22:36:56.367Z,58.33
2022-10-15T22:39:23.322Z,59.56
2022-10-15T22:41:50.259Z,60.30
2022-10-15T22:44:19.737Z,60.66
2022-10-15T22:46:49.604Z,61.58
2022-10-15T22:49:21.793Z,60.57
2022-10-15T22:51:50.403Z,62.09
2022-10-15T22:54:19.700Z,61.54
2022-10-15T22:56:47.418Z,61.65
2022-10-15T22:59:15.268Z,61.67
2022-10-15T23:01:42.782Z,61.38
2022-10-15T23:04:12.497Z,62.01
2022-10-15T23:06:39.469Z,62.91
2022-10-15T23:09:07.838Z,62.87
2022-10-15T23:11:40.272Z,63.10
2022-10-15T23:14:12.225Z,63.07
2022-10-15T23:16:41.931Z,63.33
2022-10-15T23:19:22.912Z,64.93
2022-10-15T23:21:51.464Z,64.73
2022-10-15T23:24:21.490Z,65.93
2022-10-15T23:26:48.972Z,66.05
2022-10-15T23:29:18.723Z,65.79
2022-10-15T23:31:46.726Z,67.22
2022-10-15T23:34:16.061Z,67.03
2022-10-15T23:36:44.257Z,67.66
2022-10-15T23:39:24.685Z,67.88
2022-10-15T23:41:51.769Z,68.89
2022-10-15T23:44:19.242Z,68.11
2022-10-15T23:46:46.562Z,68.41
2022-10-15T23:49:13.994Z,66.75
2022-10-15T23:51:41.506Z,67.02
2022-10-15T23:54:15.519Z,67.58
2022-10-15T23:56:42.788Z,67.13
2022-10-15T23:59:09.795Z,66.50
